sensor_id;sensor_type;location;lat;lon;timestamp;pressure;altitude;pressure_sealevel;temperature;humidity
14242;BME280;7205;50.864;12.766;2023-07-28T00:00:05;96668.69;;;18.58;100.00
14242;BME280;7205;50.864;12.766;2023-07-28T00:02:35;96663.34;;;18.58;100.00
14242;BME280;7205;50.864;12.766;2023-07-28T00:05:04;96668.44;;;18.60;100.00
14242;BME280;7205;50.864;12.766;2023-07-28T00:07:31;96664.69;;;18.61;100.00
14242;BME280;7205;50.864;12.766;2023-07-28T00:09:59;96660.16;;;18.61;100.00
14242;BME280;7205;50.864;12.766;2023-07-28T00:12:26;96668.19;;;18.61;100.00
14242;BME280;7205;50.864;12.766;2023-07-28T00:14:52;96665.25;;;18.63;100.00
14242;BME280;7205;50.864;12.766;2023-07-28T00:17:19;96660.72;;;18.63;100.00
14242;BME280;7205;50.864;12.766;2023-07-28T00:19:46;96666.06;;;18.63;100.00
14242;BME280;7205;50.864;12.766;2023-07-28T00:22:14;96657.78;;;18.65;100.00
14242;BME280;7205;50.864;12.766;2023-07-28T00:24:41;96658.59;;;18.65;100.00
14242;BME280;7205;50.864;12.766;2023-07-28T00:27:07;96654.88;;;18.66;100.00
14242;BME280;7205;50.864;12.766;2023-07-28T00:29:34;96656.22;;;18.69;100.00
14242;BME280;7205;50.864;12.766;2023-07-28T00:32:01;96656.22;;;18.69;100.00
14242;BME280;7205;50.864;12.766;2023-07-28T00:34:28;96653.78;;;18.67;100.00
14242;BME280;7205;50.864;12.766;2023-07-28T00:36:55;96657.03;;;18.69;100.00
14242;BME280;7205;50.864;12.766;2023-07-28T00:39:23;96662.63;;;18.68;100.00
14242;BME280;7205;50.864;12.766;2023-07-28T00:41:50;96667.16;;;18.67;100.00
14242;BME280;7205;50.864;12.766;2023-07-28T00:44:17;96663.94;;;18.65;100.00
14242;BME280;7205;50.864;12.766;2023-07-28T00:46:45;96669.28;;;18.65;100.00
14242;BME280;7205;50.864;12.766;2023-07-28T00:49:12;96666.06;;;18.63;100.00
14242;BME280;7205;50.864;12.766;2023-07-28T00:51:39;96668.75;;;18.63;100.00
14242;BME280;7205;50.864;12.766;2023-07-28T00:54:06;96663.16;;;18.65;100.00
14242;BME280;7205;50.864;12.766;2023-07-28T00:56:35;96663.94;;;18.65;100.00
14242;BME280;7205;50.864;12.766;2023-07-28T00:59:01;96665.81;;;18.65;100.00
14242;BME280;7205;50.864;12.766;2023-07-28T01:01:28;96664.19;;;18.64;100.00
14242;BME280;7205;50.864;12.766;2023-07-28T01:03:55;96666.53;;;18.60;100.00
14242;BME280;7205;50.864;12.766;2023-07-28T01:06:28;96663.34;;;18.58;100.00
14242;BME280;7205;50.864;12.766;2023-07-28T01:09:00;96668.13;;;18.56;100.00
14242;BME280;7205;50.864;12.766;2023-07-28T01:11:29;96671.63;;;18.57;100.00
14242;BME280;7205;50.864;12.766;2023-07-28T01:13:57;96665.69;;;18.55;100.00
14242;BME280;7205;50.864;12.766;2023-07-28T01:16:24;96665.13;;;18.53;100.00
14242;BME280;7205;50.864;12.766;2023-07-28T01:18:51;96660.59;;;18.53;100.00
14242;BME280;7205;50.864;12.766;2023-07-28T01:21:21;96668.88;;;18.52;100.00
14242;BME280;7205;50.864;12.766;2023-07-28T01:23:59;96663.75;;;18.50;100.00
14242;BME280;7205;50.864;12.766;2023-07-28T01:26:32;96668.31;;;18.50;100.00
14242;BME280;7205;50.864;12.766;2023-07-28T01:29:00;96659.47;;;18.49;100.00
14242;BME280;7205;50.864;12.766;2023-07-28T01:31:27;96662.13;;;18.49;100.00
14242;BME280;7205;50.864;12.766;2023-07-28T01:33:54;96655.19;;;18.48;100.00
14242;BME280;7205;50.864;12.766;2023-07-28T01:36:21;96657.03;;;18.48;100.00
14242;BME280;7205;50.864;12.766;2023-07-28T01:38:47;96660.78;;;18.47;100.00
14242;BME280;7205;50.864;12.766;2023-07-28T01:41:14;96650.88;;;18.47;100.00
14242;BME280;7205;50.864;12.766;2023-07-28T01:43:42;96643.13;;;18.46;100.00
14242;BME280;7205;50.864;12.766;2023-07-28T01:46:09;96649.53;;;18.45;100.00
14242;BME280;7205;50.864;12.766;2023-07-28T01:48:37;96648.72;;;18.44;100.00
14242;BME280;7205;50.864;12.766;2023-07-28T01:51:03;96647.91;;;18.44;100.00
14242;BME280;7205;50.864;12.766;2023-07-28T01:53:30;96654.31;;;18.43;100.00
14242;BME280;7205;50.864;12.766;2023-07-28T01:55:57;96655.59;;;18.40;100.00
14242;BME280;7205;50.864;12.766;2023-07-28T01:58:26;96658.50;;;18.39;100.00
14242;BME280;7205;50.864;12.766;2023-07-28T02:00:54;96653.41;;;18.37;100.00
14242;BME280;7205;50.864;12.766;2023-07-28T02:03:21;96652.84;;;18.35;100.00
14242;BME280;7205;50.864;12.766;2023-07-28T02:05:48;96649.63;;;18.33;100.00
14242;BME280;7205;50.864;12.766;2023-07-28T02:08:15;96665.91;;;18.32;100.00
14242;BME280;7205;50.864;12.766;2023-07-28T02:10:42;96663.47;;;18.30;100.00
14242;BME280;7205;50.864;12.766;2023-07-28T02:13:09;96653.28;;;18.27;100.00
14242;BME280;7205;50.864;12.766;2023-07-28T02:15:36;96659.44;;;18.28;100.00
14242;BME280;7205;50.864;12.766;2023-07-28T02:18:04;96658.03;;;18.25;100.00
14242;BME280;7205;50.864;12.766;2023-07-28T02:20:31;96657.25;;;18.25;100.00
14242;BME280;7205;50.864;12.766;2023-07-28T02:22:59;96655.38;;;18.25;100.00
14242;BME280;7205;50.864;12.766;2023-07-28T02:25:25;96652.94;;;18.24;100.00
14242;BME280;7205;50.864;12.766;2023-07-28T02:27:52;96662.03;;;18.23;100.00
14242;BME280;7205;50.864;12.766;2023-07-28T02:30:19;96653.19;;;18.22;100.00
14242;BME280;7205;50.864;12.766;2023-07-28T02:32:46;96659.38;;;18.23;100.00
14242;BME280;7205;50.864;12.766;2023-07-28T02:35:14;96668.19;;;18.23;100.00
14242;BME280;7205;50.864;12.766;2023-07-28T02:37:41;96659.13;;;18.24;100.00
14242;BME280;7205;50.864;12.766;2023-07-28T02:40:09;96658.03;;;18.25;100.00
14242;BME280;7205;50.864;12.766;2023-07-28T02:42:35;96658.03;;;18.25;100.00
14242;BME280;7205;50.864;12.766;2023-07-28T02:45:02;96656.19;;;18.26;100.00
14242;BME280;7205;50.864;12.766;2023-07-28T02:47:29;96653.53;;;18.26;100.00
14242;BME280;7205;50.864;12.766;2023-07-28T02:49:57;96652.47;;;18.27;100.00
14242;BME280;7205;50.864;12.766;2023-07-28T02:52:25;96655.94;;;18.27;100.00
14242;BME280;7205;50.864;12.766;2023-07-28T02:54:51;96662.09;;;18.28;100.00
14242;BME280;7205;50.864;12.766;2023-07-28T02:57:18;96657.81;;;18.27;100.00
14242;BME280;7205;50.864;12.766;2023-07-28T02:59:47;96654.34;;;18.26;100.00
14242;BME280;7205;50.864;12.766;2023-07-28T03:02:15;96651.66;;;18.26;100.00
14242;BME280;7205;50.864;12.766;2023-07-28T03:04:41;96658.88;;;18.26;100.00
14242;BME280;7205;50.864;12.766;2023-07-28T03:07:24;96646.31;;;18.26;100.00
14242;BME280;7205;50.864;12.766;2023-07-28T03:09:59;96651.09;;;18.24;100.00
14242;BME280;7205;50.864;12.766;2023-07-28T03:12:32;96646.56;;;18.25;100.00
14242;BME280;7205;50.864;12.766;2023-07-28T03:14:59;96650.84;;;18.26;100.00
14242;BME280;7205;50.864;12.766;2023-07-28T03:17:26;96646.56;;;18.25;100.00
14242;BME280;7205;50.864;12.766;2023-07-28T03:19:53;96659.13;;;18.24;100.00
14242;BME280;7205;50.864;12.766;2023-07-28T03:22:19;96664.22;;;18.26;100.00
14242;BME280;7205;50.864;12.766;2023-07-28T03:24:47;96667.94;;;18.25;100.00
14242;BME280;7205;50.864;12.766;2023-07-28T03:27:15;96667.13;;;18.24;100.00
14242;BME280;7205;50.864;12.766;2023-07-28T03:29:42;96674.34;;;18.24;100.00
14242;BME280;7205;50.864;12.766;2023-07-28T03:32:09;96670.88;;;18.23;100.00
14242;BME280;7205;50.864;12.766;2023-07-28T03:34:36;96672.97;;;18.21;100.00
14242;BME280;7205;50.864;12.766;2023-07-28T03:37:05;96670.31;;;18.21;100.00
14242;BME280;7205;50.864;12.766;2023-07-28T03:39:33;96671.13;;;18.22;100.00
14242;BME280;7205;50.864;12.766;2023-07-28T03:42:01;96678.31;;;18.21;100.00
14242;BME280;7205;50.864;12.766;2023-07-28T03:44:29;96692.50;;;18.22;100.00
14242;BME280;7205;50.864;12.766;2023-07-28T03:46:56;96686.34;;;18.21;100.00
14242;BME280;7205;50.864;12.766;2023-07-28T03:49:23;96681.81;;;18.22;100.00
14242;BME280;7205;50.864;12.766;2023-07-28T03:51:50;96685.28;;;18.22;100.00
14242;BME280;7205;50.864;12.766;2023-07-28T03:54:16;96683.66;;;18.21;100.00
14242;BME280;7205;50.864;12.766;2023-07-28T03:56:43;96684.22;;;18.23;100.00
14242;BME280;7205;50.864;12.766;2023-07-28T03:59:11;96693.84;;;18.24;100.00
14242;BME280;7205;50.864;12.766;2023-07-28T04:01:38;96696.78;;;18.23;100.00
14242;BME280;7205;50.864;12.766;2023-07-28T04:04:05;96693.03;;;18.24;100.00
14242;BME280;7205;50.864;12.766;2023-07-28T04:06:40;96688.50;;;18.24;100.00
14242;BME280;7205;50.864;12.766;2023-07-28T04:09:07;96691.75;;;18.26;100.00
14242;BME280;7205;50.864;12.766;2023-07-28T04:11:34;96686.97;;;18.28;100.00
14242;BME280;7205;50.864;12.766;2023-07-28T04:14:01;96688.09;;;18.32;100.00
14242;BME280;7205;50.864;12.766;2023-07-28T04:16:29;96688.41;;;18.36;100.00
14242;BME280;7205;50.864;12.766;2023-07-28T04:18:56;96693.03;;;18.40;100.00
14242;BME280;7205;50.864;12.766;2023-07-28T04:21:23;96703.25;;;18.43;100.00
14242;BME280;7205;50.864;12.766;2023-07-28T04:23:50;96704.34;;;18.47;100.00
14242;BME280;7205;50.864;12.766;2023-07-28T04:26:17;96700.91;;;18.47;100.00
14242;BME280;7205;50.864;12.766;2023-07-28T04:28:49;96695.28;;;18.48;100.00
14242;BME280;7205;50.864;12.766;2023-07-28T04:31:16;96693.97;;;18.51;100.00
14242;BME280;7205;50.864;12.766;2023-07-28T04:33:53;96695.63;;;18.52;100.00
14242;BME280;7205;50.864;12.766;2023-07-28T04:36:21;96701.50;;;18.54;100.00
14242;BME280;7205;50.864;12.766;2023-07-28T04:38:48;96699.38;;;18.56;100.00
14242;BME280;7205;50.864;12.766;2023-07-28T04:41:15;96705.31;;;18.58;100.00
14242;BME280;7205;50.864;12.766;2023-07-28T04:43:50;96713.91;;;18.60;100.00
14242;BME280;7205;50.864;12.766;2023-07-28T04:46:17;96715.50;;;18.61;100.00
14242;BME280;7205;50.864;12.766;2023-07-28T04:48:49;96713.13;;;18.64;100.00
14242;BME280;7205;50.864;12.766;2023-07-28T04:51:35;96722.03;;;18.70;100.00
14242;BME280;7205;50.864;12.766;2023-07-28T04:54:31;96725.56;;;18.75;100.00
14242;BME280;7205;50.864;12.766;2023-07-28T04:56:58;96721.91;;;18.82;100.00
14242;BME280;7205;50.864;12.766;2023-07-28T04:59:31;96723.59;;;18.88;100.00
14242;BME280;7205;50.864;12.766;2023-07-28T05:01:58;96727.66;;;18.90;100.00
14242;BME280;7205;50.864;12.766;2023-07-28T05:04:25;96720.97;;;18.93;100.00
14242;BME280;7205;50.864;12.766;2023-07-28T05:06:53;96727.94;;;18.94;100.00
14242;BME280;7205;50.864;12.766;2023-07-28T05:09:20;96724.22;;;18.95;100.00
14242;BME280;7205;50.864;12.766;2023-07-28T05:11:47;96731.97;;;18.96;100.00
14242;BME280;7205;50.864;12.766;2023-07-28T05:14:14;96735.22;;;18.98;100.00
14242;BME280;7205;50.864;12.766;2023-07-28T05:16:40;96735.78;;;19.00;100.00
14242;BME280;7205;50.864;12.766;2023-07-28T05:19:10;96737.97;;;19.03;100.00
14242;BME280;7205;50.864;12.766;2023-07-28T05:22:07;96728.38;;;19.07;100.00
14242;BME280;7205;50.864;12.766;2023-07-28T05:24:46;96735.66;;;19.12;100.00
14242;BME280;7205;50.864;12.766;2023-07-28T05:27:15;96739.19;;;19.17;100.00
14242;BME280;7205;50.864;12.766;2023-07-28T05:29:45;96734.38;;;19.19;100.00
14242;BME280;7205;50.864;12.766;2023-07-28T05:32:12;96730.41;;;19.22;100.00
14242;BME280;7205;50.864;12.766;2023-07-28T05:34:53;96734.69;;;19.23;100.00
14242;BME280;7205;50.864;12.766;2023-07-28T05:37:21;96735.81;;;19.27;100.00
14242;BME280;7205;50.864;12.766;2023-07-28T05:39:48;96735.00;;;19.26;100.00
14242;BME280;7205;50.864;12.766;2023-07-28T05:42:16;96736.84;;;19.26;100.00
14242;BME280;7205;50.864;12.766;2023-07-28T05:44:45;96740.09;;;19.28;100.00
14242;BME280;7205;50.864;12.766;2023-07-28T05:47:11;96743.03;;;19.26;100.00
14242;BME280;7205;50.864;12.766;2023-07-28T05:49:38;96742.22;;;19.26;100.00
14242;BME280;7205;50.864;12.766;2023-07-28T05:52:06;96743.38;;;19.30;100.00
14242;BME280;7205;50.864;12.766;2023-07-28T05:54:34;96750.16;;;19.37;100.00
14242;BME280;7205;50.864;12.766;2023-07-28T05:57:01;96743.78;;;19.43;100.00
14242;BME280;7205;50.864;12.766;2023-07-28T05:59:28;96744.38;;;19.50;100.00
14242;BME280;7205;50.864;12.766;2023-07-28T06:01:55;96755.19;;;19.60;100.00
14242;BME280;7205;50.864;12.766;2023-07-28T06:04:38;96764.63;;;19.68;100.00
14242;BME280;7205;50.864;12.766;2023-07-28T06:07:06;96758.53;;;19.72;100.00
14242;BME280;7205;50.864;12.766;2023-07-28T06:09:35;96765.53;;;19.78;100.00
14242;BME280;7205;50.864;12.766;2023-07-28T06:12:02;96754.06;;;19.83;100.00
14242;BME280;7205;50.864;12.766;2023-07-28T06:14:29;96761.09;;;19.89;100.00
14242;BME280;7205;50.864;12.766;2023-07-28T06:16:56;96755.25;;;19.97;100.00
14242;BME280;7205;50.864;12.766;2023-07-28T06:19:27;96759.66;;;20.13;100.00
14242;BME280;7205;50.864;12.766;2023-07-28T06:21:54;96766.28;;;20.32;100.00
14242;BME280;7205;50.864;12.766;2023-07-28T06:24:21;96755.09;;;20.45;100.00
14242;BME280;7205;50.864;12.766;2023-07-28T06:26:49;96757.03;;;20.55;100.00
14242;BME280;7205;50.864;12.766;2023-07-28T06:29:17;96769.41;;;20.61;100.00
14242;BME280;7205;50.864;12.766;2023-07-28T06:31:44;96760.84;;;20.64;100.00
14242;BME280;7205;50.864;12.766;2023-07-28T06:34:11;96757.63;;;20.67;100.00
14242;BME280;7205;50.864;12.766;2023-07-28T06:36:37;96755.53;;;20.74;100.00
14242;BME280;7205;50.864;12.766;2023-07-28T06:39:05;96756.41;;;20.84;100.00
14242;BME280;7205;50.864;12.766;2023-07-28T06:41:32;96748.38;;;20.89;100.00
14242;BME280;7205;50.864;12.766;2023-07-28T06:44:01;96738.44;;;20.95;99.61
14242;BME280;7205;50.864;12.766;2023-07-28T06:46:28;96745.19;;;20.97;98.89
14242;BME280;7205;50.864;12.766;2023-07-28T06:48:55;96751.41;;;21.03;98.42
14242;BME280;7205;50.864;12.766;2023-07-28T06:51:22;96757.84;;;21.07;97.43
14242;BME280;7205;50.864;12.766;2023-07-28T06:53:49;96759.22;;;21.09;96.91
14242;BME280;7205;50.864;12.766;2023-07-28T06:56:16;96764.84;;;21.08;95.66
14242;BME280;7205;50.864;12.766;2023-07-28T06:58:43;96764.03;;;21.07;95.50
14242;BME280;7205;50.864;12.766;2023-07-28T07:01:11;96764.00;;;21.02;94.58
14242;BME280;7205;50.864;12.766;2023-07-28T07:03:38;96770.19;;;20.98;94.45
14242;BME280;7205;50.864;12.766;2023-07-28T07:06:04;96765.81;;;20.92;94.14
14242;BME280;7205;50.864;12.766;2023-07-28T07:08:32;96766.59;;;20.87;94.16
14242;BME280;7205;50.864;12.766;2023-07-28T07:10:59;96771.97;;;20.87;94.71
14242;BME280;7205;50.864;12.766;2023-07-28T07:13:26;96772.25;;;20.91;94.97
14242;BME280;7205;50.864;12.766;2023-07-28T07:15:52;96775.50;;;20.93;94.72
14242;BME280;7205;50.864;12.766;2023-07-28T07:18:20;96769.88;;;20.94;94.59
14242;BME280;7205;50.864;12.766;2023-07-28T07:20:47;96772.06;;;20.97;94.76
14242;BME280;7205;50.864;12.766;2023-07-28T07:23:14;96768.03;;;21.05;95.18
14242;BME280;7205;50.864;12.766;2023-07-28T07:25:41;96766.75;;;21.12;94.83
14242;BME280;7205;50.864;12.766;2023-07-28T07:28:08;96762.75;;;21.25;94.43
14242;BME280;7205;50.864;12.766;2023-07-28T07:30:35;96753.66;;;21.36;93.86
14242;BME280;7205;50.864;12.766;2023-07-28T07:33:01;96758.53;;;21.49;93.07
14242;BME280;7205;50.864;12.766;2023-07-28T07:35:29;96759.91;;;21.62;92.17
14242;BME280;7205;50.864;12.766;2023-07-28T07:37:56;96756.16;;;21.73;91.43
14242;BME280;7205;50.864;12.766;2023-07-28T07:40:23;96774.75;;;21.89;91.48
14242;BME280;7205;50.864;12.766;2023-07-28T07:42:50;96764.00;;;22.09;91.81
14242;BME280;7205;50.864;12.766;2023-07-28T07:45:17;96765.84;;;22.29;89.95
14242;BME280;7205;50.864;12.766;2023-07-28T07:47:44;96767.75;;;22.38;87.30
14242;BME280;7205;50.864;12.766;2023-07-28T07:50:11;96775.00;;;22.38;85.42
14242;BME280;7205;50.864;12.766;2023-07-28T07:52:40;96770.97;;;22.35;83.85
14242;BME280;7205;50.864;12.766;2023-07-28T07:55:09;96770.97;;;22.30;83.65
14242;BME280;7205;50.864;12.766;2023-07-28T07:57:36;96764.78;;;22.30;83.57
14242;BME280;7205;50.864;12.766;2023-07-28T08:00:04;96778.25;;;22.35;83.56
14242;BME280;7205;50.864;12.766;2023-07-28T08:02:38;96780.38;;;22.43;83.65
14242;BME280;7205;50.864;12.766;2023-07-28T08:05:06;96777.44;;;22.55;83.70
14242;BME280;7205;50.864;12.766;2023-07-28T08:07:33;96780.09;;;22.65;82.95
14242;BME280;7205;50.864;12.766;2023-07-28T08:10:01;96776.59;;;22.69;81.89
14242;BME280;7205;50.864;12.766;2023-07-28T08:12:28;96772.31;;;22.63;79.96
14242;BME280;7205;50.864;12.766;2023-07-28T08:14:55;96765.03;;;22.49;79.21
14242;BME280;7205;50.864;12.766;2023-07-28T08:17:21;96769.09;;;22.31;79.36
14242;BME280;7205;50.864;12.766;2023-07-28T08:19:48;96771.78;;;22.21;80.86
14242;BME280;7205;50.864;12.766;2023-07-28T08:22:15;96773.16;;;22.18;81.85
14242;BME280;7205;50.864;12.766;2023-07-28T08:24:42;96771.78;;;22.16;81.91
14242;BME280;7205;50.864;12.766;2023-07-28T08:27:10;96775.03;;;22.08;81.87
14242;BME280;7205;50.864;12.766;2023-07-28T08:29:37;96775.84;;;22.08;82.99
14242;BME280;7205;50.864;12.766;2023-07-28T08:32:04;96789.78;;;22.25;84.65
14242;BME280;7205;50.864;12.766;2023-07-28T08:34:31;96785.22;;;22.46;84.46
14242;BME280;7205;50.864;12.766;2023-07-28T08:36:57;96790.59;;;22.66;82.77
14242;BME280;7205;50.864;12.766;2023-07-28T08:39:24;96783.31;;;22.82;81.82
14242;BME280;7205;50.864;12.766;2023-07-28T08:41:57;96778.44;;;22.94;80.40
14242;BME280;7205;50.864;12.766;2023-07-28T08:44:26;96777.59;;;22.98;79.32
14242;BME280;7205;50.864;12.766;2023-07-28T08:46:53;96781.09;;;22.99;77.86
14242;BME280;7205;50.864;12.766;2023-07-28T08:49:20;96774.91;;;22.98;77.38
14242;BME280;7205;50.864;12.766;2023-07-28T08:51:49;96784.31;;;23.01;76.99
14242;BME280;7205;50.864;12.766;2023-07-28T08:54:16;96785.91;;;23.07;76.52
14242;BME280;7205;50.864;12.766;2023-07-28T08:56:42;96789.38;;;23.17;76.84
14242;BME280;7205;50.864;12.766;2023-07-28T08:59:10;96788.56;;;23.22;75.80
14242;BME280;7205;50.864;12.766;2023-07-28T09:01:39;96795.84;;;23.16;74.71
14242;BME280;7205;50.864;12.766;2023-07-28T09:04:09;96787.78;;;23.06;74.88
14242;BME280;7205;50.864;12.766;2023-07-28T09:06:37;96787.56;;;22.98;75.50
14242;BME280;7205;50.864;12.766;2023-07-28T09:09:06;96791.38;;;22.87;74.90
14242;BME280;7205;50.864;12.766;2023-07-28T09:11:33;96786.28;;;22.80;75.66
14242;BME280;7205;50.864;12.766;2023-07-28T09:14:11;96798.94;;;22.75;75.87
14242;BME280;7205;50.864;12.766;2023-07-28T09:16:40;96794.91;;;22.72;76.16
14242;BME280;7205;50.864;12.766;2023-07-28T09:19:07;96807.81;;;22.75;76.92
14242;BME280;7205;50.864;12.766;2023-07-28T09:21:35;96810.47;;;22.90;77.68
14242;BME280;7205;50.864;12.766;2023-07-28T09:24:04;96804.78;;;23.07;77.09
14242;BME280;7205;50.864;12.766;2023-07-28T09:26:37;96802.03;;;23.27;76.00
14242;BME280;7205;50.864;12.766;2023-07-28T09:29:11;96810.28;;;23.50;75.47
14242;BME280;7205;50.864;12.766;2023-07-28T09:31:40;96812.00;;;23.80;74.72
14242;BME280;7205;50.864;12.766;2023-07-28T09:34:07;96818.66;;;24.03;71.99
14242;BME280;7205;50.864;12.766;2023-07-28T09:36:34;96805.56;;;24.15;69.41
14242;BME280;7205;50.864;12.766;2023-07-28T09:39:04;96808.47;;;24.23;69.38
14242;BME280;7205;50.864;12.766;2023-07-28T09:41:34;96812.50;;;24.31;68.68
14242;BME280;7205;50.864;12.766;2023-07-28T09:44:01;96822.44;;;24.35;67.25
14242;BME280;7205;50.864;12.766;2023-07-28T09:46:28;96811.59;;;24.40;66.26
14242;BME280;7205;50.864;12.766;2023-07-28T09:48:59;96814.50;;;24.49;65.42
14242;BME280;7205;50.864;12.766;2023-07-28T09:51:30;96817.66;;;24.56;65.23
14242;BME280;7205;50.864;12.766;2023-07-28T09:54:04;96827.25;;;24.72;65.23
14242;BME280;7205;50.864;12.766;2023-07-28T09:56:32;96814.13;;;24.89;64.31
14242;BME280;7205;50.864;12.766;2023-07-28T09:59:01;96821.84;;;25.01;63.04
14242;BME280;7205;50.864;12.766;2023-07-28T10:01:29;96819.44;;;24.99;61.17
14242;BME280;7205;50.864;12.766;2023-07-28T10:03:58;96821.66;;;24.92;61.74
14242;BME280;7205;50.864;12.766;2023-07-28T10:06:25;96840.84;;;24.91;62.34
14242;BME280;7205;50.864;12.766;2023-07-28T10:08:52;96839.78;;;24.92;61.33
14242;BME280;7205;50.864;12.766;2023-07-28T10:11:20;96841.66;;;24.91;61.01
14242;BME280;7205;50.864;12.766;2023-07-28T10:13:48;96842.44;;;24.97;62.01
14242;BME280;7205;50.864;12.766;2023-07-28T10:16:17;96837.47;;;25.04;61.07
14242;BME280;7205;50.864;12.766;2023-07-28T10:18:52;96833.28;;;25.16;61.39
14242;BME280;7205;50.864;12.766;2023-07-28T10:21:21;96826.59;;;25.32;60.97
14242;BME280;7205;50.864;12.766;2023-07-28T10:23:54;96824.09;;;25.41;60.11
14242;BME280;7205;50.864;12.766;2023-07-28T10:26:31;96821.94;;;25.43;60.12
14242;BME280;7205;50.864;12.766;2023-07-28T10:29:11;96827.63;;;25.41;58.82
14242;BME280;7205;50.864;12.766;2023-07-28T10:31:49;96832.31;;;25.31;58.11
14242;BME280;7205;50.864;12.766;2023-07-28T10:34:17;96832.38;;;25.26;58.48
14242;BME280;7205;50.864;12.766;2023-07-28T10:36:45;96842.38;;;25.25;58.32
14242;BME280;7205;50.864;12.766;2023-07-28T10:39:13;96842.16;;;25.22;58.07
14242;BME280;7205;50.864;12.766;2023-07-28T10:41:41;96842.22;;;25.17;58.19
14242;BME280;7205;50.864;12.766;2023-07-28T10:44:26;96845.19;;;25.15;58.59
14242;BME280;7205;50.864;12.766;2023-07-28T10:46:53;96841.94;;;25.18;58.69
14242;BME280;7205;50.864;12.766;2023-07-28T10:49:20;96855.16;;;25.20;59.05
14242;BME280;7205;50.864;12.766;2023-07-28T10:51:48;96842.09;;;25.27;59.43
14242;BME280;7205;50.864;12.766;2023-07-28T10:54:19;96847.13;;;25.38;59.23
14242;BME280;7205;50.864;12.766;2023-07-28T10:56:47;96847.50;;;25.50;58.37
14242;BME280;7205;50.864;12.766;2023-07-28T10:59:14;96847.44;;;25.55;57.70
14242;BME280;7205;50.864;12.766;2023-07-28T11:01:42;96845.25;;;25.57;57.31
14242;BME280;7205;50.864;12.766;2023-07-28T11:04:10;96847.66;;;25.59;57.15
14242;BME280;7205;50.864;12.766;2023-07-28T11:06:38;96836.22;;;25.67;57.83
14242;BME280;7205;50.864;12.766;2023-07-28T11:09:08;96839.59;;;25.77;56.04
14242;BME280;7205;50.864;12.766;2023-07-28T11:11:35;96850.63;;;25.81;55.31
14242;BME280;7205;50.864;12.766;2023-07-28T11:14:02;96844.16;;;25.82;55.17
14242;BME280;7205;50.864;12.766;2023-07-28T11:16:32;96843.34;;;25.81;55.22
14242;BME280;7205;50.864;12.766;2023-07-28T11:19:00;96847.34;;;25.84;54.79
14242;BME280;7205;50.864;12.766;2023-07-28T11:21:27;96835.38;;;25.90;55.13
14242;BME280;7205;50.864;12.766;2023-07-28T11:23:54;96830.09;;;25.98;54.94
14242;BME280;7205;50.864;12.766;2023-07-28T11:26:23;96837.81;;;26.10;54.99
14242;BME280;7205;50.864;12.766;2023-07-28T11:28:50;96846.38;;;26.17;53.73
14242;BME280;7205;50.864;12.766;2023-07-28T11:31:23;96841.75;;;26.18;53.37
14242;BME280;7205;50.864;12.766;2023-07-28T11:33:51;96859.03;;;26.22;53.52
14242;BME280;7205;50.864;12.766;2023-07-28T11:36:22;96855.44;;;26.26;52.96
14242;BME280;7205;50.864;12.766;2023-07-28T11:38:49;96858.06;;;26.31;52.61
14242;BME280;7205;50.864;12.766;2023-07-28T11:41:17;96856.16;;;26.32;52.29
14242;BME280;7205;50.864;12.766;2023-07-28T11:43:46;96852.34;;;26.33;52.17
14242;BME280;7205;50.864;12.766;2023-07-28T11:46:33;96856.47;;;26.30;52.53
14242;BME280;7205;50.864;12.766;2023-07-28T11:49:07;96849.63;;;26.33;51.92
14242;BME280;7205;50.864;12.766;2023-07-28T11:51:37;96859.09;;;26.35;51.49
14242;BME280;7205;50.864;12.766;2023-07-28T11:54:06;96860.09;;;26.39;51.42
14242;BME280;7205;50.864;12.766;2023-07-28T11:56:33;96863.03;;;26.43;50.87
14242;BME280;7205;50.864;12.766;2023-07-28T11:59:01;96862.44;;;26.46;50.92
14242;BME280;7205;50.864;12.766;2023-07-28T12:01:29;96865.34;;;26.49;51.29
14242;BME280;7205;50.864;12.766;2023-07-28T12:03:55;96859.28;;;26.57;51.53
14242;BME280;7205;50.864;12.766;2023-07-28T12:06:24;96865.91;;;26.65;50.85
14242;BME280;7205;50.864;12.766;2023-07-28T12:08:50;96867.50;;;26.71;50.74
14242;BME280;7205;50.864;12.766;2023-07-28T12:11:17;96860.88;;;26.77;50.48
14242;BME280;7205;50.864;12.766;2023-07-28T12:13:48;96869.44;;;26.84;50.86
14242;BME280;7205;50.864;12.766;2023-07-28T12:16:39;96854.47;;;26.86;50.58
14242;BME280;7205;50.864;12.766;2023-07-28T12:19:07;96857.00;;;26.96;50.35
14242;BME280;7205;50.864;12.766;2023-07-28T12:21:34;96857.72;;;27.02;50.29
14242;BME280;7205;50.864;12.766;2023-07-28T12:24:01;96862.91;;;26.98;49.42
14242;BME280;7205;50.864;12.766;2023-07-28T12:26:28;96868.31;;;26.85;48.87
14242;BME280;7205;50.864;12.766;2023-07-28T12:28:55;96865.56;;;26.71;49.41
14242;BME280;7205;50.864;12.766;2023-07-28T12:31:21;96871.72;;;26.58;49.85
14242;BME280;7205;50.864;12.766;2023-07-28T12:33:50;96868.06;;;26.49;50.48
14242;BME280;7205;50.864;12.766;2023-07-28T12:36:17;96876.00;;;26.46;50.46
14242;BME280;7205;50.864;12.766;2023-07-28T12:38:43;96876.00;;;26.46;50.89
14242;BME280;7205;50.864;12.766;2023-07-28T12:41:10;96866.69;;;26.52;51.19
14242;BME280;7205;50.864;12.766;2023-07-28T12:43:37;96865.69;;;26.61;50.97
14242;BME280;7205;50.864;12.766;2023-07-28T12:46:04;96861.56;;;26.69;51.48
14242;BME280;7205;50.864;12.766;2023-07-28T12:48:31;96863.66;;;26.72;51.71
14242;BME280;7205;50.864;12.766;2023-07-28T12:51:00;96857.66;;;26.75;51.78
14242;BME280;7205;50.864;12.766;2023-07-28T12:53:26;96861.97;;;26.76;51.82
14242;BME280;7205;50.864;12.766;2023-07-28T12:55:53;96851.41;;;26.74;51.64
14242;BME280;7205;50.864;12.766;2023-07-28T12:58:20;96858.25;;;26.72;51.11
14242;BME280;7205;50.864;12.766;2023-07-28T13:00:47;96858.53;;;26.70;51.44